Time;durP1;ratioP1;P1;durP2;ratioP2;P2;SDS_P1;SDS_P2;PMS_P1;PMS_P2;Temp;Humidity;BMP_temperature;BMP_pressure;BME280_temperature;BME280_humidity;BME280_pressure;Samples;Min_cycle;Max_cycle;Signal;HPM_P1;HPM_P2
2023/10/24 00:01:43;;;;;;;21.80;13.00;;;10.20;99.90;;;;;;5092094;28;20043;-76
2023/10/24 00:04:10;;;;;;;19.05;11.63;;;10.20;99.90;;;;;;5092019;28;20039;-75
2023/10/24 00:06:36;;;;;;;21.08;13.07;;;10.30;99.90;;;;;;5074067;28;20051;-76
2023/10/24 00:09:04;;;;;;;21.80;12.52;;;10.20;99.90;;;;;;5080775;28;20533;-76
2023/10/24 00:11:30;;;;;;;18.52;11.05;;;10.20;99.90;;;;;;5091742;28;20399;-75
2023/10/24 00:13:59;;;;;;;18.88;11.70;;;10.20;99.90;;;;;;5091435;28;20049;-76
2023/10/24 00:16:25;;;;;;;19.13;12.52;;;10.20;99.90;;;;;;5086854;28;20126;-76
2023/10/24 00:18:54;;;;;;;19.15;11.20;;;10.20;99.90;;;;;;5091727;28;20048;-76
2023/10/24 00:21:19;;;;;;;20.83;12.23;;;10.30;99.90;;;;;;5091522;28;20111;-75
2023/10/24 00:23:45;;;;;;;20.02;10.77;;;10.20;99.90;;;;;;5092867;28;20066;-76
2023/10/24 00:26:10;;;;;;;18.52;11.05;;;10.20;99.90;;;;;;5091854;28;20051;-76
2023/10/24 00:28:36;;;;;;;19.08;11.32;;;10.30;99.90;;;;;;5090624;28;20403;-76
2023/10/24 00:31:03;;;;;;;22.85;12.13;;;10.30;99.90;;;;;;5092953;28;20040;-76
2023/10/24 00:33:30;;;;;;;22.35;12.98;;;10.30;99.90;;;;;;5092433;28;20048;-76
2023/10/24 00:35:55;;;;;;;19.35;12.18;;;10.20;99.90;;;;;;5091808;28;20075;-75
2023/10/24 00:38:21;;;;;;;22.58;12.38;;;10.20;99.90;;;;;;5092547;28;20514;-76
2023/10/24 00:40:50;;;;;;;21.52;12.30;;;10.20;99.90;;;;;;5092816;28;20411;-76
2023/10/24 00:43:15;;;;;;;21.20;12.65;;;10.30;99.90;;;;;;5091750;28;20044;-75
2023/10/24 00:45:41;;;;;;;18.92;11.80;;;10.30;99.90;;;;;;5091550;28;20032;-75
2023/10/24 00:48:07;;;;;;;22.20;12.85;;;10.20;99.90;;;;;;5092351;28;20052;-76
2023/10/24 00:50:33;;;;;;;19.60;11.60;;;10.20;99.90;;;;;;5092185;28;20055;-76
2023/10/24 00:53:01;;;;;;;21.63;12.63;;;10.20;99.90;;;;;;5095613;28;20126;-76
2023/10/24 00:55:29;;;;;;;23.80;12.77;;;10.30;99.90;;;;;;5095374;28;20106;-76
2023/10/24 00:57:56;;;;;;;19.38;11.73;;;10.30;99.90;;;;;;5094182;28;20063;-76
2023/10/24 01:00:24;;;;;;;20.70;12.70;;;10.20;99.90;;;;;;5096098;28;20044;-76
2023/10/24 01:02:50;;;;;;;17.90;11.63;;;10.30;99.90;;;;;;5098078;28;20047;-77
2023/10/24 01:05:16;;;;;;;22.00;12.30;;;10.20;99.90;;;;;;5095589;28;20384;-76
2023/10/24 01:07:44;;;;;;;21.17;11.15;;;10.30;99.90;;;;;;5094738;28;20048;-76
2023/10/24 01:10:11;;;;;;;20.10;12.10;;;10.30;99.90;;;;;;5094832;28;20056;-76
2023/10/24 01:12:37;;;;;;;20.98;12.57;;;10.30;99.90;;;;;;5089031;28;20094;-76
2023/10/24 01:15:04;;;;;;;23.67;14.10;;;10.20;99.90;;;;;;5089041;28;20047;-76
2023/10/24 01:17:30;;;;;;;21.30;12.35;;;10.30;99.90;;;;;;5096196;28;20105;-76
2023/10/24 01:19:56;;;;;;;21.58;12.77;;;10.20;99.90;;;;;;5096062;28;20044;-76
2023/10/24 01:22:21;;;;;;;21.77;12.57;;;10.30;99.90;;;;;;5095208;28;20044;-76
2023/10/24 01:24:47;;;;;;;18.58;11.52;;;10.30;99.90;;;;;;5095485;28;20048;-76
2023/10/24 01:27:14;;;;;;;24.60;13.95;;;10.30;99.90;;;;;;5095362;28;20503;-76
2023/10/24 01:29:40;;;;;;;25.05;13.85;;;10.20;99.90;;;;;;5095740;28;20083;-76
2023/10/24 01:32:06;;;;;;;21.75;13.20;;;10.20;99.90;;;;;;5095262;28;20075;-76
2023/10/24 01:34:31;;;;;;;17.48;11.23;;;10.30;99.90;;;;;;5095593;28;20044;-76
2023/10/24 01:36:57;;;;;;;21.83;13.57;;;10.30;99.90;;;;;;5093977;28;20116;-77
2023/10/24 01:39:23;;;;;;;24.30;13.98;;;10.20;99.90;;;;;;5095117;28;20040;-76
2023/10/24 01:41:49;;;;;;;23.35;13.45;;;10.20;99.90;;;;;;5095682;28;20040;-76
2023/10/24 01:44:14;;;;;;;20.85;14.23;;;10.20;99.90;;;;;;5095283;28;20442;-76
2023/10/24 01:46:40;;;;;;;21.35;14.38;;;10.30;99.90;;;;;;5095066;28;20464;-76
2023/10/24 01:49:06;;;;;;;21.25;12.52;;;10.20;99.90;;;;;;5095540;28;20190;-76
2023/10/24 01:51:32;;;;;;;20.65;14.15;;;10.20;99.90;;;;;;5095678;28;20094;-77
2023/10/24 01:53:57;;;;;;;20.50;12.30;;;10.20;99.90;;;;;;5093793;28;20048;-77
2023/10/24 01:56:23;;;;;;;23.33;13.45;;;10.20;99.90;;;;;;5093819;28;20083;-76
2023/10/24 01:58:48;;;;;;;23.63;13.75;;;10.20;99.90;;;;;;5094194;28;20485;-77
2023/10/24 02:01:14;;;;;;;19.35;13.25;;;10.20;99.90;;;;;;5094998;28;20079;-76
2023/10/24 02:03:40;;;;;;;22.35;13.55;;;10.30;99.90;;;;;;5096391;28;20040;-76
2023/10/24 02:06:05;;;;;;;21.65;13.88;;;10.20;99.90;;;;;;5093613;28;20071;-76
2023/10/24 02:08:31;;;;;;;22.75;13.75;;;10.30;99.90;;;;;;5087973;28;20090;-76
2023/10/24 02:10:57;;;;;;;18.73;13.02;;;10.20;99.90;;;;;;5081004;28;20040;-76
2023/10/24 02:13:22;;;;;;;22.90;14.13;;;10.30;99.90;;;;;;5095157;28;20379;-76
2023/10/24 02:15:48;;;;;;;20.33;13.05;;;10.20;99.90;;;;;;5094962;28;20080;-76
2023/10/24 02:18:13;;;;;;;23.08;14.77;;;10.30;99.90;;;;;;5093749;28;20135;-76
2023/10/24 02:20:39;;;;;;;26.20;14.90;;;10.30;99.90;;;;;;5094165;28;20052;-76
2023/10/24 02:23:05;;;;;;;23.02;14.25;;;10.30;99.90;;;;;;5094681;28;20460;-76
2023/10/24 02:25:35;;;;;;;20.45;12.82;;;10.30;99.90;;;;;;5094705;28;20126;-76
2023/10/24 02:28:01;;;;;;;23.15;13.93;;;10.30;99.90;;;;;;5093603;28;20080;-76
2023/10/24 02:30:27;;;;;;;21.65;13.63;;;10.30;99.90;;;;;;5094385;28;20082;-76
2023/10/24 02:33:00;;;;;;;29.27;15.77;;;10.30;99.90;;;;;;5094419;28;20052;-77
2023/10/24 02:35:26;;;;;;;23.08;14.43;;;10.30;99.90;;;;;;5094114;28;20048;-76
2023/10/24 02:37:52;;;;;;;22.00;13.55;;;10.30;99.90;;;;;;5092881;28;20063;-77
2023/10/24 02:40:18;;;;;;;22.52;12.98;;;10.30;99.90;;;;;;5091838;28;20048;-77
2023/10/24 02:42:43;;;;;;;24.30;14.32;;;10.30;99.90;;;;;;5094489;28;20056;-76
2023/10/24 02:45:09;;;;;;;23.77;13.95;;;10.30;99.90;;;;;;5093228;28;20066;-76
2023/10/24 02:47:35;;;;;;;18.38;12.48;;;10.30;99.90;;;;;;5094287;28;20048;-76
2023/10/24 02:50:01;;;;;;;23.30;12.95;;;10.30;99.90;;;;;;5094447;28;20040;-76
2023/10/24 02:52:28;;;;;;;21.42;13.13;;;10.40;99.90;;;;;;5094080;28;20407;-76
2023/10/24 02:54:54;;;;;;;20.58;12.85;;;10.40;99.90;;;;;;5093931;28;20142;-76
2023/10/24 02:57:20;;;;;;;20.15;13.35;;;10.40;99.90;;;;;;5093496;28;20135;-76
2023/10/24 02:59:45;;;;;;;22.73;13.40;;;10.30;99.90;;;;;;5094203;28;20048;-76
2023/10/24 03:02:12;;;;;;;21.15;13.43;;;10.40;99.90;;;;;;5094034;28;20048;-77
2023/10/24 03:04:38;;;;;;;20.17;12.18;;;10.40;99.90;;;;;;5087237;28;20454;-76
2023/10/24 03:07:03;;;;;;;27.13;16.00;;;10.80;99.90;;;;;;5089294;28;20043;-76
2023/10/24 03:09:29;;;;;;;25.83;15.23;;;10.40;99.90;;;;;;5107936;28;20086;-76
2023/10/24 03:11:55;;;;;;;21.05;13.15;;;10.40;99.90;;;;;;5114646;28;20089;-76
2023/10/24 03:14:20;;;;;;;21.15;12.50;;;10.40;99.90;;;;;;5106562;28;20508;-76
2023/10/24 03:16:47;;;;;;;20.63;13.32;;;10.50;99.90;;;;;;5075039;28;20101;-77
2023/10/24 03:19:13;;;;;;;22.08;13.00;;;10.40;99.90;;;;;;5094140;28;20426;-76
2023/10/24 03:21:38;;;;;;;25.08;14.45;;;10.50;99.90;;;;;;5092382;28;20054;-77
2023/10/24 03:24:05;;;;;;;20.52;13.70;;;10.50;99.90;;;;;;5075822;28;20515;-77
2023/10/24 03:26:30;;;;;;;20.38;12.52;;;10.50;99.90;;;;;;5092784;28;20088;-77
2023/10/24 03:28:56;;;;;;;25.15;14.38;;;10.50;99.90;;;;;;5093250;28;20117;-77
2023/10/24 03:31:22;;;;;;;26.92;15.38;;;10.50;99.90;;;;;;5092328;28;20048;-77
2023/10/24 03:33:47;;;;;;;24.35;15.15;;;10.40;99.90;;;;;;5093672;28;20048;-76
2023/10/24 03:36:13;;;;;;;24.10;14.77;;;10.50;99.90;;;;;;5092751;28;20435;-77
2023/10/24 03:38:39;;;;;;;18.40;12.75;;;10.50;99.90;;;;;;5098202;28;20044;-76
2023/10/24 03:41:06;;;;;;;26.60;13.95;;;10.50;99.90;;;;;;5093125;28;20122;-77
2023/10/24 03:43:35;;;;;;;23.65;14.93;;;10.60;99.90;;;;;;5092624;28;20040;-76
2023/10/24 03:46:07;;;;;;;25.05;15.90;;;10.60;99.90;;;;;;5093197;28;20047;-77
2023/10/24 03:48:34;;;;;;;21.83;13.25;;;10.60;99.90;;;;;;5093133;28;20142;-76
2023/10/24 03:51:00;;;;;;;26.52;15.27;;;10.50;99.90;;;;;;5093581;28;20079;-76
2023/10/24 03:53:27;;;;;;;26.98;15.95;;;10.60;99.90;;;;;;5096324;28;20052;-77
2023/10/24 03:55:58;;;;;;;25.77;15.50;;;10.90;99.90;;;;;;5093084;28;20131;-76
2023/10/24 03:58:24;;;;;;;36.60;18.80;;;10.60;99.90;;;;;;5092786;28;20075;-76
2023/10/24 04:00:50;;;;;;;30.55;17.98;;;10.60;99.90;;;;;;5085120;28;20133;-76
2023/10/24 04:03:15;;;;;;;31.02;18.13;;;10.60;99.90;;;;;;5092849;28;20040;-76
2023/10/24 04:05:41;;;;;;;32.22;17.55;;;10.60;99.90;;;;;;5092991;28;20083;-77
2023/10/24 04:08:07;;;;;;;25.40;16.75;;;10.60;99.90;;;;;;5091642;28;20050;-76
2023/10/24 04:10:37;;;;;;;39.67;20.38;;;10.70;99.90;;;;;;5093309;28;20048;-76
2023/10/24 04:13:03;;;;;;;32.55;18.85;;;10.60;99.90;;;;;;5093151;28;20050;-76
2023/10/24 04:15:28;;;;;;;31.73;17.27;;;10.70;99.90;;;;;;5091700;28;20040;-76
2023/10/24 04:17:54;;;;;;;28.08;17.23;;;10.70;99.90;;;;;;5091657;28;20047;-76
2023/10/24 04:20:20;;;;;;;28.15;17.63;;;10.70;99.90;;;;;;5075269;28;20044;-76
2023/10/24 04:22:49;;;;;;;26.92;16.17;;;10.70;99.90;;;;;;5092709;28;20502;-76
2023/10/24 04:25:15;;;;;;;29.05;17.88;;;10.70;99.90;;;;;;5093122;28;20106;-76
2023/10/24 04:27:41;;;;;;;31.33;18.42;;;10.70;99.90;;;;;;5095024;28;20503;-76
2023/10/24 04:30:07;;;;;;;38.80;21.45;;;10.70;99.90;;;;;;5095920;28;20079;-76
2023/10/24 04:32:33;;;;;;;36.75;20.35;;;10.80;99.90;;;;;;5097071;28;20048;-76
2023/10/24 04:34:58;;;;;;;38.17;20.83;;;10.70;99.90;;;;;;5096135;28;20055;-77
2023/10/24 04:37:24;;;;;;;35.67;20.75;;;10.90;99.90;;;;;;5096001;28;20082;-76
2023/10/24 04:39:50;;;;;;;27.98;16.75;;;10.70;99.90;;;;;;5100763;28;20134;-76
2023/10/24 04:42:16;;;;;;;31.67;18.83;;;10.80;99.90;;;;;;5096607;28;20079;-77
2023/10/24 04:44:41;;;;;;;34.63;19.77;;;10.80;99.90;;;;;;5096986;28;20071;-76
2023/10/24 04:47:07;;;;;;;39.38;21.23;;;10.80;99.90;;;;;;5078287;28;20043;-77
2023/10/24 04:49:36;;;;;;;32.63;19.60;;;10.80;99.90;;;;;;5094941;28;20403;-76
2023/10/24 04:52:02;;;;;;;31.02;17.05;;;10.80;99.90;;;;;;5106585;28;20047;-77
2023/10/24 04:54:28;;;;;;;29.88;19.02;;;10.90;99.90;;;;;;5096673;28;20076;-76
2023/10/24 04:56:55;;;;;;;29.73;19.45;;;10.90;99.90;;;;;;5091262;28;20133;-76
2023/10/24 04:59:20;;;;;;;27.58;19.58;;;10.90;99.90;;;;;;5094454;28;20052;-77
2023/10/24 05:01:46;;;;;;;27.42;17.33;;;10.90;99.90;;;;;;5095246;28;20127;-76
2023/10/24 05:04:12;;;;;;;25.10;17.52;;;10.90;99.90;;;;;;5092979;28;20369;-77
2023/10/24 05:06:38;;;;;;;29.60;18.55;;;10.90;99.90;;;;;;5094570;28;20040;-77
2023/10/24 05:09:03;;;;;;;29.35;18.65;;;10.90;99.90;;;;;;5094611;28;20051;-76
2023/10/24 05:11:29;;;;;;;29.23;18.58;;;11.00;99.90;;;;;;5095896;28;20044;-77
2023/10/24 05:13:55;;;;;;;29.83;19.02;;;11.00;99.90;;;;;;5094836;28;20051;-77
2023/10/24 05:16:21;;;;;;;28.98;18.88;;;11.00;99.90;;;;;;5096126;28;20062;-76
2023/10/24 05:18:47;;;;;;;30.42;18.90;;;11.00;99.90;;;;;;5094731;28;20052;-76
2023/10/24 05:21:12;;;;;;;24.73;17.27;;;11.00;99.90;;;;;;5094142;28;20047;-77
2023/10/24 05:23:38;;;;;;;25.92;16.85;;;11.00;99.90;;;;;;5094412;28;20048;-76
2023/10/24 05:26:04;;;;;;;31.02;19.00;;;11.00;99.90;;;;;;5095870;28;20071;-76
2023/10/24 05:28:30;;;;;;;31.48;18.35;;;11.00;99.90;;;;;;5095970;28;20153;-77
2023/10/24 05:30:56;;;;;;;25.48;16.80;;;11.00;99.90;;;;;;5094874;28;20046;-76
2023/10/24 05:33:22;;;;;;;27.73;18.27;;;11.00;99.90;;;;;;5095645;28;20448;-77
2023/10/24 05:35:48;;;;;;;27.13;18.00;;;11.00;99.90;;;;;;5095619;28;20122;-76
2023/10/24 05:38:14;;;;;;;32.25;20.13;;;11.00;99.90;;;;;;5094320;28;20075;-76
2023/10/24 05:40:40;;;;;;;27.05;18.23;;;11.00;99.90;;;;;;5094840;28;20456;-76
2023/10/24 05:43:06;;;;;;;26.00;18.27;;;11.00;99.90;;;;;;5095027;28;20040;-76
2023/10/24 05:45:32;;;;;;;29.23;19.20;;;11.00;99.90;;;;;;5094213;28;20051;-76
2023/10/24 05:47:58;;;;;;;22.10;16.35;;;11.00;99.90;;;;;;5096431;28;20057;-76
2023/10/24 05:50:24;;;;;;;30.13;19.33;;;11.00;99.90;;;;;;5105120;28;20384;-76
2023/10/24 05:52:50;;;;;;;27.52;18.30;;;11.00;99.90;;;;;;5093485;28;20053;-78
2023/10/24 05:55:17;;;;;;;29.02;17.23;;;11.10;99.90;;;;;;5083607;28;20045;-77
2023/10/24 05:57:42;;;;;;;34.70;25.35;;;11.00;99.90;;;;;;5094223;28;20046;-78
2023/10/24 06:00:09;;;;;;;27.38;16.85;;;11.00;99.90;;;;;;5094472;28;20410;-77
2023/10/24 06:02:34;;;;;;;25.83;17.85;;;11.00;99.90;;;;;;5096250;28;20388;-77
2023/10/24 06:05:00;;;;;;;28.40;20.15;;;11.00;99.90;;;;;;5096788;28;20048;-76
2023/10/24 06:07:26;;;;;;;25.23;17.05;;;11.00;99.90;;;;;;5094917;28;20441;-77
2023/10/24 06:09:52;;;;;;;23.10;16.40;;;11.00;99.90;;;;;;5096124;28;20089;-77
2023/10/24 06:12:18;;;;;;;24.40;16.20;;;11.00;99.90;;;;;;5094962;28;20044;-77
2023/10/24 06:14:43;;;;;;;23.27;17.58;;;11.00;99.90;;;;;;5095216;28;20048;-77
2023/10/24 06:17:09;;;;;;;23.95;17.20;;;11.00;99.90;;;;;;5092975;28;20460;-75
2023/10/24 06:19:39;;;;;;;24.35;15.50;;;11.00;99.90;;;;;;5099636;28;20072;-76
2023/10/24 06:22:06;;;;;;;21.00;14.52;;;10.90;99.90;;;;;;5092977;28;20036;-76
2023/10/24 06:24:31;;;;;;;22.10;14.25;;;11.00;99.90;;;;;;5093534;28;20066;-75
2023/10/24 06:26:57;;;;;;;22.00;14.35;;;10.90;99.90;;;;;;5094208;28;20044;-75
2023/10/24 06:29:23;;;;;;;23.05;15.77;;;10.90;99.90;;;;;;5093616;28;20567;-76
2023/10/24 06:31:48;;;;;;;20.38;13.75;;;11.00;99.90;;;;;;5094299;28;20045;-76
2023/10/24 06:34:14;;;;;;;21.88;15.25;;;11.00;99.90;;;;;;5093767;28;20443;-76
2023/10/24 06:36:40;;;;;;;17.50;12.65;;;11.00;99.90;;;;;;5093187;28;20044;-76
2023/10/24 06:39:05;;;;;;;18.50;12.32;;;10.90;99.90;;;;;;5093523;28;20076;-77
2023/10/24 06:41:32;;;;;;;18.92;13.73;;;11.00;99.90;;;;;;5094348;28;20048;-76
2023/10/24 06:43:58;;;;;;;21.88;13.55;;;11.00;99.90;;;;;;5093732;28;20063;-76
2023/10/24 06:46:24;;;;;;;20.13;14.10;;;11.00;99.90;;;;;;5094650;28;20039;-76
2023/10/24 06:48:50;;;;;;;22.73;15.48;;;11.00;99.90;;;;;;5089213;28;20083;-76
2023/10/24 06:51:16;;;;;;;20.77;12.70;;;11.00;99.90;;;;;;5085044;28;20040;-76
2023/10/24 06:53:42;;;;;;;18.27;13.25;;;11.00;99.90;;;;;;5094411;28;20125;-76
2023/10/24 06:56:08;;;;;;;15.63;10.27;;;11.00;99.90;;;;;;5093466;28;20123;-76
2023/10/24 06:58:33;;;;;;;17.88;12.13;;;11.00;99.90;;;;;;5093724;28;20184;-76
2023/10/24 07:00:59;;;;;;;19.60;12.75;;;11.00;99.90;;;;;;5092784;28;20384;-76
2023/10/24 07:03:25;;;;;;;16.63;10.98;;;11.00;99.90;;;;;;5094486;28;20051;-75
2023/10/24 07:05:51;;;;;;;21.85;12.40;;;11.00;99.90;;;;;;5093663;28;20119;-76
2023/10/24 07:08:18;;;;;;;17.73;12.15;;;11.00;99.90;;;;;;5092855;28;20058;-76
2023/10/24 07:10:44;;;;;;;15.65;11.82;;;11.00;99.90;;;;;;5094214;28;20092;-75
2023/10/24 07:13:11;;;;;;;17.42;11.82;;;11.00;99.90;;;;;;5092594;28;20469;-76
2023/10/24 07:15:37;;;;;;;21.27;12.55;;;11.00;99.90;;;;;;5093846;28;20399;-75
2023/10/24 07:18:03;;;;;;;16.10;11.63;;;11.00;99.90;;;;;;5093977;28;20040;-76
2023/10/24 07:20:29;;;;;;;18.50;11.52;;;11.00;99.90;;;;;;5093476;28;20581;-76
2023/10/24 07:22:54;;;;;;;23.90;14.65;;;11.00;99.90;;;;;;5094282;28;20085;-76
2023/10/24 07:25:20;;;;;;;24.13;15.48;;;11.00;99.90;;;;;;5094668;28;20475;-75
2023/10/24 07:27:47;;;;;;;16.02;10.10;;;11.00;99.90;;;;;;5092336;28;20189;-76
2023/10/24 07:30:12;;;;;;;15.18;9.70;;;11.10;99.90;;;;;;5093689;28;20504;-76
2023/10/24 07:32:38;;;;;;;19.48;13.77;;;11.10;99.90;;;;;;5092774;28;20090;-76
2023/10/24 07:35:04;;;;;;;14.90;9.52;;;11.10;99.90;;;;;;5093089;28;20390;-76
2023/10/24 07:37:35;;;;;;;15.15;11.32;;;11.10;99.90;;;;;;5091720;28;20076;-75
2023/10/24 07:40:02;;;;;;;14.75;11.10;;;11.10;99.90;;;;;;5092167;28;20051;-75
2023/10/24 07:42:28;;;;;;;22.60;14.48;;;11.10;99.90;;;;;;5092083;28;20090;-76
2023/10/24 07:44:54;;;;;;;16.25;11.02;;;11.10;99.90;;;;;;5072450;28;20491;-76
2023/10/24 07:47:19;;;;;;;16.52;10.65;;;11.10;99.90;;;;;;5083386;28;20131;-76
2023/10/24 07:49:46;;;;;;;15.43;10.45;;;11.10;99.90;;;;;;5091750;28;20119;-75
2023/10/24 07:52:12;;;;;;;17.33;11.25;;;11.10;99.90;;;;;;5092532;28;20040;-76
2023/10/24 07:54:38;;;;;;;19.55;12.93;;;11.10;99.90;;;;;;5091156;28;20093;-76
2023/10/24 07:57:05;;;;;;;17.02;11.60;;;11.10;99.90;;;;;;5091477;28;20040;-76
2023/10/24 07:59:31;;;;;;;15.90;10.13;;;11.10;99.90;;;;;;5092015;28;20040;-76
2023/10/24 08:01:57;;;;;;;16.10;11.00;;;11.10;99.90;;;;;;5090745;28;20372;-76
2023/10/24 08:04:23;;;;;;;16.40;10.52;;;11.20;99.90;;;;;;5094446;28;20055;-76
2023/10/24 08:06:49;;;;;;;17.10;10.57;;;11.20;99.90;;;;;;5075405;28;20044;-76
2023/10/24 08:09:14;;;;;;;19.73;12.65;;;11.20;99.90;;;;;;5092234;28;20048;-75
2023/10/24 08:11:40;;;;;;;14.80;10.38;;;11.20;99.90;;;;;;5092122;28;20570;-76
2023/10/24 08:14:06;;;;;;;15.45;8.85;;;11.20;99.90;;;;;;5092166;28;20040;-76
2023/10/24 08:16:31;;;;;;;16.58;10.65;;;11.20;99.90;;;;;;5092108;28;20040;-77
2023/10/24 08:18:58;;;;;;;13.57;9.27;;;11.30;99.90;;;;;;5091597;28;20036;-76
2023/10/24 08:21:23;;;;;;;13.25;8.88;;;11.20;99.90;;;;;;5091702;28;20044;-76
2023/10/24 08:23:49;;;;;;;15.57;9.85;;;11.20;99.90;;;;;;5091498;28;20052;-76
2023/10/24 08:26:15;;;;;;;14.48;9.88;;;11.20;99.90;;;;;;5091517;28;20101;-76
2023/10/24 08:28:41;;;;;;;13.43;9.18;;;11.20;99.90;;;;;;5091840;28;20048;-76
2023/10/24 08:31:07;;;;;;;14.90;9.88;;;11.20;99.90;;;;;;5091684;28;20067;-76
2023/10/24 08:33:33;;;;;;;14.80;9.40;;;11.20;99.90;;;;;;5091649;28;20134;-75
2023/10/24 08:35:59;;;;;;;13.13;8.82;;;11.20;99.90;;;;;;5091581;28;20456;-76
2023/10/24 08:38:24;;;;;;;15.07;9.73;;;11.20;99.90;;;;;;5091845;28;20044;-76
2023/10/24 08:40:50;;;;;;;16.50;10.38;;;11.20;99.90;;;;;;5090803;28;20093;-77
2023/10/24 08:43:18;;;;;;;18.48;10.35;;;11.20;99.90;;;;;;5080845;28;20072;-76
2023/10/24 08:45:44;;;;;;;16.48;10.45;;;11.20;99.90;;;;;;5085165;28;20134;-76
2023/10/24 08:48:10;;;;;;;13.98;8.85;;;11.20;99.90;;;;;;5091711;28;20349;-77
2023/10/24 08:50:37;;;;;;;14.23;9.13;;;11.30;99.90;;;;;;5074683;28;20109;-75
2023/10/24 08:53:02;;;;;;;16.33;9.63;;;11.20;99.90;;;;;;5091756;28;20123;-75
2023/10/24 08:55:29;;;;;;;16.08;9.95;;;11.20;99.90;;;;;;5091632;28;20127;-76
2023/10/24 08:58:00;;;;;;;17.55;10.18;;;11.30;99.90;;;;;;5075052;28;20040;-76
2023/10/24 09:00:27;;;;;;;15.30;10.07;;;11.30;99.90;;;;;;5091467;28;20052;-76
2023/10/24 09:02:56;;;;;;;17.17;9.77;;;11.30;99.90;;;;;;5087026;28;20129;-75
2023/10/24 09:05:27;;;;;;;17.75;9.68;;;11.30;99.90;;;;;;5091335;28;20514;-76
2023/10/24 09:07:53;;;;;;;17.98;9.57;;;11.30;99.90;;;;;;5091181;28;20476;-76
2023/10/24 09:10:20;;;;;;;18.17;10.27;;;11.30;99.90;;;;;;5091484;28;20048;-76
2023/10/24 09:12:46;;;;;;;16.25;9.82;;;11.30;99.90;;;;;;5092848;28;20056;-75
2023/10/24 09:15:11;;;;;;;16.58;9.82;;;11.30;99.90;;;;;;5094629;28;20051;-76
2023/10/24 09:17:40;;;;;;;14.80;9.18;;;11.30;99.90;;;;;;5094890;28;20051;-75
2023/10/24 09:20:06;;;;;;;15.23;9.32;;;11.30;99.90;;;;;;5095061;28;20051;-76
2023/10/24 09:22:34;;;;;;;20.05;10.27;;;11.30;99.90;;;;;;5093888;28;20064;-76
2023/10/24 09:25:01;;;;;;;16.33;9.75;;;11.30;99.90;;;;;;5094275;28;20560;-77
2023/10/24 09:27:27;;;;;;;13.80;8.82;;;11.30;99.90;;;;;;5094707;28;20048;-75
2023/10/24 09:29:53;;;;;;;14.82;9.63;;;11.30;99.90;;;;;;5094923;28;20052;-75
2023/10/24 09:32:20;;;;;;;17.42;9.98;;;11.30;99.90;;;;;;5077247;28;20044;-76
2023/10/24 09:34:47;;;;;;;16.98;10.00;;;11.30;99.90;;;;;;5095009;28;20098;-76
2023/10/24 09:37:13;;;;;;;17.17;10.52;;;11.30;99.90;;;;;;5092661;28;20037;-76
2023/10/24 09:39:57;;;;;;;16.42;10.52;;;11.30;99.90;;;;;;5090225;28;20048;-75
2023/10/24 09:42:30;;;;;;;16.02;9.20;;;11.30;99.90;;;;;;5094009;28;20048;-76
2023/10/24 09:45:02;;;;;;;15.80;10.23;;;11.30;99.90;;;;;;5094491;28;20103;-76
2023/10/24 09:47:29;;;;;;;17.20;9.88;;;11.30;99.90;;;;;;5094588;28;20044;-76
2023/10/24 09:49:56;;;;;;;16.65;11.15;;;11.30;99.90;;;;;;5093923;28;20048;-76
2023/10/24 09:52:29;;;;;;;17.23;10.98;;;11.30;99.90;;;;;;5100282;28;20449;-76
2023/10/24 09:54:55;;;;;;;15.18;9.95;;;11.30;99.90;;;;;;5106737;28;20498;-78
2023/10/24 09:57:22;;;;;;;17.63;10.93;;;11.30;99.90;;;;;;5093973;28;20101;-76
2023/10/24 09:59:57;;;;;;;16.65;10.57;;;11.30;99.90;;;;;;5094474;28;20364;-75
2023/10/24 10:02:24;;;;;;;16.08;10.80;;;11.30;99.90;;;;;;5093648;28;20086;-76
2023/10/24 10:04:50;;;;;;;16.73;10.18;;;11.30;99.90;;;;;;5096186;28;20056;-75
2023/10/24 10:07:17;;;;;;;17.58;10.68;;;11.30;99.90;;;;;;5093852;28;20848;-75
2023/10/24 10:09:47;;;;;;;16.92;9.57;;;11.30;99.90;;;;;;5093899;28;20048;-75
2023/10/24 10:12:17;;;;;;;16.63;10.10;;;11.30;99.90;;;;;;5094133;28;20044;-75
2023/10/24 10:15:07;;;;;;;14.93;9.82;;;11.30;99.90;;;;;;5077299;28;20079;-75
2023/10/24 10:17:52;;;;;;;16.27;9.75;;;11.30;99.90;;;;;;5095193;28;20044;-76
2023/10/24 10:20:36;;;;;;;14.77;10.07;;;11.30;99.90;;;;;;5093441;28;20105;-76
2023/10/24 10:23:40;;;;;;;15.15;10.05;;;11.30;99.90;;;;;;5093369;28;20066;-76
2023/10/24 10:26:35;;;;;;;16.75;10.05;;;11.30;99.90;;;;;;5092698;28;20048;-76
2023/10/24 10:29:25;;;;;;;13.40;9.38;;;11.30;99.90;;;;;;5093118;28;20044;-76
2023/10/24 10:32:26;;;;;;;13.05;9.20;;;11.30;99.90;;;;;;5092542;28;20054;-77
2023/10/24 10:34:54;;;;;;;14.45;9.75;;;11.30;99.90;;;;;;5052020;28;20108;-76
2023/10/24 10:37:23;;;;;;;15.82;10.40;;;11.30;99.90;;;;;;5083941;28;20056;-75
2023/10/24 10:40:14;;;;;;;14.32;9.40;;;11.30;99.90;;;;;;5076584;28;20054;-76
2023/10/24 10:42:49;;;;;;;17.48;9.82;;;11.40;99.90;;;;;;5076373;28;20535;-75
2023/10/24 10:45:28;;;;;;;15.38;9.75;;;11.50;99.90;;;;;;5092483;28;20051;-75
2023/10/24 10:47:58;;;;;;;13.48;9.20;;;11.50;99.90;;;;;;5093583;28;20468;-75
2023/10/24 10:50:28;;;;;;;13.80;9.18;;;11.50;99.90;;;;;;5076181;28;20040;-76
2023/10/24 10:53:21;;;;;;;14.18;9.20;;;11.50;99.90;;;;;;5095376;28;20442;-76
2023/10/24 10:56:14;;;;;;;15.60;9.68;;;11.60;99.90;;;;;;5093010;28;20503;-75
2023/10/24 10:58:40;;;;;;;16.70;8.63;;;11.60;99.90;;;;;;5092909;28;20071;-76
2023/10/24 11:01:21;;;;;;;16.90;9.13;;;11.60;99.90;;;;;;5092927;28;20411;-76
2023/10/24 11:03:49;;;;;;;14.15;9.05;;;11.60;99.90;;;;;;5085669;28;20139;-75
2023/10/24 11:06:16;;;;;;;13.07;8.43;;;11.60;99.90;;;;;;5093253;28;20392;-75
2023/10/24 11:09:13;;;;;;;14.68;8.52;;;11.60;99.90;;;;;;5093848;28;20109;-75
2023/10/24 11:11:41;;;;;;;13.05;9.02;;;11.70;99.90;;;;;;5076106;28;20377;-76
2023/10/24 11:14:15;;;;;;;13.88;8.30;;;11.60;99.90;;;;;;5090798;28;20131;-74
2023/10/24 11:16:42;;;;;;;15.97;9.63;;;11.70;99.90;;;;;;5090143;28;20491;-75
2023/10/24 11:19:19;;;;;;;13.75;8.95;;;11.70;99.90;;;;;;5091911;28;20297;-75
2023/10/24 11:21:47;;;;;;;14.05;9.15;;;11.70;99.90;;;;;;5092821;28;20083;-76
2023/10/24 11:24:20;;;;;;;13.60;9.20;;;11.80;99.90;;;;;;5091511;28;20334;-76
2023/10/24 11:26:54;;;;;;;13.30;9.60;;;11.70;99.90;;;;;;5075662;28;20167;-75
2023/10/24 11:29:20;;;;;;;13.55;8.73;;;11.70;99.90;;;;;;5091705;28;20101;-75
2023/10/24 11:31:48;;;;;;;14.63;9.45;;;11.80;99.90;;;;;;5084010;28;20388;-74
2023/10/24 11:34:14;;;;;;;13.63;8.73;;;11.80;99.90;;;;;;5083391;28;20630;-74
2023/10/24 11:36:41;;;;;;;15.60;9.77;;;11.80;99.90;;;;;;5092734;28;20158;-74
2023/10/24 11:39:08;;;;;;;13.30;8.80;;;11.80;99.90;;;;;;5092086;28;20052;-75
2023/10/24 11:41:34;;;;;;;15.18;9.35;;;11.80;99.90;;;;;;5092003;28;20065;-74
2023/10/24 11:44:00;;;;;;;13.25;9.05;;;11.80;99.90;;;;;;5092090;28;20052;-73
2023/10/24 11:46:25;;;;;;;14.75;8.98;;;11.80;99.90;;;;;;5092229;28;20059;-73
2023/10/24 11:48:51;;;;;;;12.95;9.15;;;11.80;99.90;;;;;;5088007;28;20047;-74
2023/10/24 11:51:17;;;;;;;12.75;8.93;;;11.80;99.90;;;;;;5091491;28;20085;-74
2023/10/24 11:53:43;;;;;;;13.93;8.52;;;11.90;99.90;;;;;;5093422;28;20040;-75
2023/10/24 11:56:09;;;;;;;12.95;8.65;;;11.90;99.90;;;;;;5091532;28;20040;-75
2023/10/24 11:58:35;;;;;;;17.27;9.27;;;11.90;99.90;;;;;;5092257;28;20047;-75
2023/10/24 12:01:02;;;;;;;14.82;9.10;;;11.90;99.90;;;;;;5092014;28;20050;-75
2023/10/24 12:03:48;;;;;;;14.65;10.02;;;11.80;99.90;;;;;;5084356;28;20044;-75
2023/10/24 12:06:20;;;;;;;14.48;9.40;;;11.80;99.90;;;;;;5092191;28;20085;-75
2023/10/24 12:08:48;;;;;;;13.60;9.32;;;11.80;99.90;;;;;;5092108;28;20113;-75
2023/10/24 12:11:13;;;;;;;13.32;9.55;;;11.80;99.90;;;;;;5092048;28;20052;-75
2023/10/24 12:13:39;;;;;;;14.52;9.02;;;11.80;99.90;;;;;;5092129;28;20047;-75
2023/10/24 12:16:07;;;;;;;14.35;9.40;;;11.80;99.90;;;;;;5058535;28;20109;-75
2023/10/24 12:18:32;;;;;;;13.35;8.82;;;11.80;99.90;;;;;;5092422;28;20110;-75
2023/10/24 12:20:58;;;;;;;14.38;9.50;;;11.90;99.90;;;;;;5092066;28;20044;-75
2023/10/24 12:23:25;;;;;;;14.23;9.48;;;11.90;99.90;;;;;;5091916;28;20095;-75
2023/10/24 12:25:52;;;;;;;14.38;9.48;;;12.00;99.90;;;;;;5075409;28;20063;-75
2023/10/24 12:28:18;;;;;;;14.02;9.95;;;12.00;99.90;;;;;;5091705;28;20408;-75
2023/10/24 12:30:43;;;;;;;14.07;9.27;;;12.10;99.90;;;;;;5091918;28;20142;-75
2023/10/24 12:33:09;;;;;;;13.65;9.25;;;12.20;99.90;;;;;;5091906;28;20040;-75